Time;durP1;ratioP1;P1;durP2;ratioP2;P2;SDS_P1;SDS_P2;PMS_P1;PMS_P2;Temp;Humidity;BMP_temperature;BMP_pressure;BME280_temperature;BME280_humidity;BME280_pressure;Samples;Min_cycle;Max_cycle;Signal;HPM_P1;HPM_P2
2021/04/17 00:01:33;;;;;;;0.98;0.98;;;19.00;49.80;;;;;;5050408;28;20041;-43
2021/04/17 00:03:59;;;;;;;2.33;1.00;;;19.10;49.40;;;;;;5051690;28;20029;-43
2021/04/17 00:06:25;;;;;;;1.15;1.15;;;19.00;49.50;;;;;;5051265;28;20029;-43
2021/04/17 00:08:50;;;;;;;1.00;1.00;;;18.90;49.50;;;;;;5046631;28;20132;-48
2021/04/17 00:11:16;;;;;;;1.00;1.00;;;18.90;50.20;;;;;;5045881;28;20040;-39
2021/04/17 00:13:41;;;;;;;1.50;1.40;;;18.90;49.60;;;;;;5046690;28;20031;-41
2021/04/17 00:16:07;;;;;;;1.20;1.10;;;18.80;49.70;;;;;;5050801;28;20057;-43
2021/04/17 00:18:33;;;;;;;0.90;0.90;;;18.80;49.60;;;;;;5049870;28;20053;-42
2021/04/17 00:20:58;;;;;;;2.05;1.10;;;18.80;49.70;;;;;;5051408;28;20021;-41
2021/04/17 00:23:24;;;;;;;1.35;1.25;;;18.80;49.70;;;;;;5051792;28;20120;-40
2021/04/17 00:25:49;;;;;;;0.98;0.95;;;18.80;49.70;;;;;;5050171;28;20029;-39
2021/04/17 00:28:15;;;;;;;1.10;1.00;;;18.90;49.60;;;;;;5047348;28;20036;-43
2021/04/17 00:30:40;;;;;;;1.05;0.85;;;19.00;49.40;;;;;;5050875;28;20025;-41
2021/04/17 00:33:06;;;;;;;1.05;1.00;;;19.00;49.20;;;;;;5050660;28;20056;-41
2021/04/17 00:35:32;;;;;;;0.88;0.88;;;19.10;49.80;;;;;;5050070;28;20029;-43
2021/04/17 00:37:58;;;;;;;0.90;0.90;;;19.20;48.80;;;;;;5050622;28;20059;-43
2021/04/17 00:40:23;;;;;;;0.85;0.85;;;19.30;48.50;;;;;;5051092;28;20041;-42
2021/04/17 00:42:49;;;;;;;1.00;1.00;;;19.30;48.50;;;;;;5050165;28;20029;-41
2021/04/17 00:45:14;;;;;;;0.80;0.80;;;19.30;48.50;;;;;;5049890;28;24868;-41
2021/04/17 00:47:43;;;;;;;0.90;0.90;;;19.40;48.30;;;;;;5052302;28;20032;-41
2021/04/17 00:50:09;;;;;;;1.00;1.00;;;19.40;48.20;;;;;;5051172;28;20021;-41
2021/04/17 00:52:35;;;;;;;1.25;1.10;;;19.40;48.20;;;;;;5049894;28;20083;-42
2021/04/17 00:55:00;;;;;;;0.93;0.93;;;19.40;48.10;;;;;;5050385;28;20434;-43
2021/04/17 00:57:26;;;;;;;1.10;1.10;;;19.40;48.00;;;;;;5038559;28;20453;-41
2021/04/17 00:59:51;;;;;;;1.02;1.02;;;19.40;48.10;;;;;;5033413;28;20575;-43
2021/04/17 01:02:21;;;;;;;0.70;0.70;;;19.30;48.20;;;;;;5048225;28;20174;-42
2021/04/17 01:04:48;;;;;;;0.80;0.80;;;19.40;48.10;;;;;;5041362;28;20084;-42
2021/04/17 01:07:25;;;;;;;0.80;0.80;;;19.40;48.20;;;;;;5040464;28;20061;-43
2021/04/17 01:10:07;;;;;;;1.23;1.13;;;19.40;48.10;;;;;;5050184;28;20047;-41
2021/04/17 01:12:40;;;;;;;1.00;1.00;;;19.40;47.90;;;;;;5032240;28;20026;-42
2021/04/17 01:15:06;;;;;;;0.93;0.93;;;19.40;47.90;;;;;;5033647;28;20029;-40
2021/04/17 01:17:32;;;;;;;1.17;1.17;;;19.40;47.90;;;;;;5051217;28;20060;-43
2021/04/17 01:20:18;;;;;;;0.93;0.93;;;19.40;47.90;;;;;;5050553;28;20021;-41
2021/04/17 01:23:16;;;;;;;0.77;0.77;;;19.40;47.70;;;;;;5048913;28;20048;-42
2021/04/17 01:26:03;;;;;;;0.80;0.80;;;19.40;47.80;;;;;;5049262;28;20047;-43
2021/04/17 01:28:34;;;;;;;0.90;0.90;;;19.40;47.70;;;;;;5047054;28;20067;-43
2021/04/17 01:31:00;;;;;;;0.95;0.90;;;19.40;47.70;;;;;;5050105;28;20504;-41
2021/04/17 01:33:31;;;;;;;0.80;0.80;;;19.40;47.80;;;;;;5031702;28;20080;-39
2021/04/17 01:35:57;;;;;;;1.30;1.20;;;19.40;47.70;;;;;;5045078;28;20021;-41
2021/04/17 01:38:38;;;;;;;0.70;0.70;;;19.30;47.80;;;;;;5049507;28;20513;-42
2021/04/17 01:41:06;;;;;;;0.77;0.77;;;19.30;47.80;;;;;;5047278;28;20057;-41
2021/04/17 01:43:32;;;;;;;1.10;1.00;;;19.30;48.50;;;;;;5050054;28;20047;-41
2021/04/17 01:46:08;;;;;;;1.00;1.00;;;19.30;47.80;;;;;;5047593;28;20505;-42
2021/04/17 01:48:34;;;;;;;1.10;1.00;;;19.30;47.90;;;;;;5035293;28;20033;-41
2021/04/17 01:51:00;;;;;;;0.85;0.85;;;19.30;47.80;;;;;;5049640;28;20039;-42
2021/04/17 01:53:27;;;;;;;0.98;0.98;;;19.30;47.90;;;;;;5046749;28;20384;-43
2021/04/17 01:55:53;;;;;;;1.08;1.05;;;19.30;47.90;;;;;;5047532;28;20969;-43
2021/04/17 01:58:23;;;;;;;0.93;0.93;;;19.30;47.90;;;;;;5047438;28;20025;-43
2021/04/17 02:00:53;;;;;;;0.82;0.82;;;19.30;47.80;;;;;;5049049;28;20376;-41
2021/04/17 02:03:19;;;;;;;0.70;0.70;;;19.30;48.00;;;;;;5049866;28;20033;-41
2021/04/17 02:05:48;;;;;;;0.80;0.80;;;19.30;47.90;;;;;;5049280;28;20048;-43
2021/04/17 02:08:14;;;;;;;0.80;0.80;;;19.30;48.00;;;;;;5049969;28;20402;-41
2021/04/17 02:10:40;;;;;;;0.82;0.82;;;19.30;48.60;;;;;;5043627;28;20028;-41
2021/04/17 02:13:09;;;;;;;0.80;0.80;;;19.20;48.00;;;;;;5048479;28;20087;-42
2021/04/17 02:15:37;;;;;;;0.68;0.68;;;19.20;47.90;;;;;;5046177;28;20021;-44
2021/04/17 02:18:19;;;;;;;1.45;0.80;;;19.20;48.00;;;;;;5032115;28;20112;-42
2021/04/17 02:20:55;;;;;;;0.80;0.80;;;19.20;48.00;;;;;;5050473;28;20064;-43
2021/04/17 02:23:21;;;;;;;0.80;0.80;;;19.10;48.00;;;;;;5045923;28;20119;-43
2021/04/17 02:25:47;;;;;;;0.70;0.70;;;19.20;48.10;;;;;;5028956;28;20021;-41
2021/04/17 02:28:12;;;;;;;0.82;0.80;;;19.20;48.10;;;;;;5038016;28;20044;-42
2021/04/17 02:30:38;;;;;;;1.30;0.68;;;19.10;48.00;;;;;;5045930;28;20100;-44
2021/04/17 02:33:04;;;;;;;0.88;0.88;;;19.10;48.00;;;;;;5049464;28;20458;-46
2021/04/17 02:35:30;;;;;;;0.73;0.73;;;19.10;48.00;;;;;;5049415;28;20032;-41
2021/04/17 02:37:55;;;;;;;0.90;0.90;;;19.10;48.10;;;;;;5048423;28;20491;-43
2021/04/17 02:40:21;;;;;;;0.70;0.70;;;19.10;48.10;;;;;;5049052;28;20071;-41
2021/04/17 02:42:46;;;;;;;0.82;0.80;;;19.00;48.10;;;;;;5047106;28;20113;-43
2021/04/17 02:45:12;;;;;;;0.60;0.60;;;19.00;48.20;;;;;;5047452;28;20025;-44
2021/04/17 02:47:38;;;;;;;0.80;0.80;;;19.00;48.10;;;;;;5050821;28;20064;-41
2021/04/17 02:50:04;;;;;;;0.70;0.70;;;19.00;48.10;;;;;;5048443;28;20029;-39
2021/04/17 02:52:29;;;;;;;0.70;0.70;;;19.00;48.10;;;;;;5047946;28;20054;-42
2021/04/17 02:54:55;;;;;;;1.17;1.10;;;19.00;48.10;;;;;;5046824;28;20017;-37
2021/04/17 02:57:20;;;;;;;0.80;0.80;;;19.00;48.20;;;;;;5048614;28;20502;-41
2021/04/17 02:59:46;;;;;;;1.10;1.00;;;19.00;48.10;;;;;;5050852;28;20043;-39
2021/04/17 03:02:14;;;;;;;0.60;0.60;;;19.00;48.10;;;;;;5046539;28;20037;-41
2021/04/17 03:04:39;;;;;;;0.60;0.60;;;19.00;48.10;;;;;;5046391;28;20475;-39
2021/04/17 03:07:05;;;;;;;0.80;0.80;;;19.00;48.20;;;;;;5048530;28;20113;-42
2021/04/17 03:09:30;;;;;;;1.02;0.98;;;19.00;48.30;;;;;;5050043;28;20408;-40
2021/04/17 03:11:56;;;;;;;0.40;0.40;;;18.90;48.20;;;;;;5054639;28;20488;-42
2021/04/17 03:14:21;;;;;;;1.15;0.98;;;18.90;48.30;;;;;;5047365;28;20399;-42
2021/04/17 03:16:47;;;;;;;0.70;0.70;;;18.90;48.30;;;;;;5052838;28;20116;-42
2021/04/17 03:19:13;;;;;;;0.70;0.70;;;18.90;48.20;;;;;;5052140;28;20072;-40
2021/04/17 03:21:38;;;;;;;0.82;0.73;;;19.00;48.40;;;;;;5051649;28;20032;-40
2021/04/17 03:24:04;;;;;;;0.90;0.90;;;18.90;48.30;;;;;;5053663;28;20041;-39
2021/04/17 03:26:29;;;;;;;0.93;0.93;;;18.90;48.30;;;;;;5051882;28;20526;-42
2021/04/17 03:28:55;;;;;;;0.60;0.60;;;18.90;48.30;;;;;;5052612;28;20032;-43
2021/04/17 03:31:21;;;;;;;0.70;0.70;;;18.90;48.40;;;;;;5047807;28;20025;-42
2021/04/17 03:33:46;;;;;;;0.60;0.60;;;18.90;48.30;;;;;;5050327;28;20081;-45
2021/04/17 03:36:12;;;;;;;0.73;0.73;;;18.90;48.30;;;;;;5051760;28;20072;-41
2021/04/17 03:38:37;;;;;;;0.65;0.65;;;18.90;48.30;;;;;;5053363;28;20029;-38
2021/04/17 03:41:03;;;;;;;0.80;0.80;;;18.90;48.30;;;;;;5048913;28;20036;-40
2021/04/17 03:43:29;;;;;;;0.70;0.70;;;18.90;48.40;;;;;;5049785;28;20509;-42
2021/04/17 03:45:54;;;;;;;0.60;0.60;;;18.90;48.40;;;;;;5049274;28;20051;-42
2021/04/17 03:48:20;;;;;;;0.98;0.98;;;18.80;48.50;;;;;;5052039;28;20491;-39
2021/04/17 03:50:45;;;;;;;0.70;0.70;;;18.80;49.30;;;;;;5052086;28;20068;-42
2021/04/17 03:53:11;;;;;;;0.80;0.80;;;18.80;48.50;;;;;;5051231;28;20033;-40
2021/04/17 03:55:37;;;;;;;0.75;0.75;;;18.80;48.60;;;;;;5045562;28;20025;-39
2021/04/17 03:58:02;;;;;;;0.85;0.85;;;18.80;48.60;;;;;;5050872;28;20037;-41
2021/04/17 04:00:28;;;;;;;0.77;0.70;;;18.70;48.60;;;;;;5052228;28;20025;-39
2021/04/17 04:02:53;;;;;;;0.70;0.70;;;18.70;48.70;;;;;;5052536;28;20108;-40
2021/04/17 04:05:19;;;;;;;0.77;0.77;;;18.70;48.70;;;;;;5049878;28;20037;-39
2021/04/17 04:07:44;;;;;;;0.93;0.80;;;18.80;48.60;;;;;;5051213;28;20679;-39
2021/04/17 04:10:11;;;;;;;0.90;0.90;;;18.70;48.70;;;;;;5049421;28;20090;-42
2021/04/17 04:12:36;;;;;;;1.08;0.80;;;18.70;48.70;;;;;;5047782;28;20449;-42
2021/04/17 04:15:03;;;;;;;0.93;0.70;;;18.80;48.60;;;;;;5051984;28;20111;-40
2021/04/17 04:17:28;;;;;;;0.60;0.60;;;18.80;48.60;;;;;;5051998;28;20027;-41
2021/04/17 04:19:54;;;;;;;1.00;0.80;;;18.70;48.50;;;;;;5050742;28;20029;-39
2021/04/17 04:22:19;;;;;;;0.90;0.90;;;18.70;48.70;;;;;;5048741;28;20094;-40
2021/04/17 04:24:45;;;;;;;0.73;0.73;;;18.70;48.60;;;;;;5051485;28;20013;-42
2021/04/17 04:27:10;;;;;;;0.85;0.85;;;18.70;48.70;;;;;;5051731;28;20390;-41
2021/04/17 04:29:36;;;;;;;0.80;0.80;;;18.70;49.30;;;;;;5042218;28;20467;-39
2021/04/17 04:32:03;;;;;;;0.80;0.80;;;18.70;48.70;;;;;;5046778;28;20045;-39
2021/04/17 04:34:28;;;;;;;0.80;0.80;;;18.70;48.70;;;;;;5048271;28;20038;-43
2021/04/17 04:36:54;;;;;;;1.02;1.02;;;18.70;48.70;;;;;;5051260;28;20506;-41
2021/04/17 04:39:20;;;;;;;1.10;1.00;;;18.60;48.80;;;;;;5050756;28;20025;-41
2021/04/17 04:41:45;;;;;;;1.23;1.10;;;18.70;48.80;;;;;;5052144;28;20021;-40
2021/04/17 04:44:11;;;;;;;0.85;0.85;;;18.70;48.70;;;;;;5050327;28;20396;-40
2021/04/17 04:46:36;;;;;;;0.90;0.90;;;18.70;48.70;;;;;;5050343;28;20025;-42
2021/04/17 04:49:02;;;;;;;0.88;0.88;;;18.60;48.70;;;;;;5048924;28;20037;-42
2021/04/17 04:51:27;;;;;;;0.90;0.90;;;18.60;48.70;;;;;;5049539;28;20021;-40
2021/04/17 04:53:53;;;;;;;1.10;1.10;;;18.60;48.70;;;;;;5050617;28;20033;-44
2021/04/17 04:56:19;;;;;;;1.00;1.00;;;18.60;48.80;;;;;;5049648;28;20553;-40
2021/04/17 04:58:44;;;;;;;1.33;1.08;;;18.60;49.40;;;;;;5050143;28;20116;-41
2021/04/17 05:01:10;;;;;;;1.10;1.10;;;18.60;48.90;;;;;;5047035;28;20020;-42
2021/04/17 05:03:36;;;;;;;0.90;0.90;;;18.50;48.80;;;;;;5050794;28;20029;-40
2021/04/17 05:06:01;;;;;;;1.00;1.00;;;18.60;48.80;;;;;;5037171;28;20021;-40
2021/04/17 05:08:27;;;;;;;0.90;0.90;;;18.60;48.80;;;;;;5049774;28;20033;-42
2021/04/17 05:10:52;;;;;;;1.10;1.10;;;18.60;48.80;;;;;;5048561;28;20069;-46
2021/04/17 05:13:18;;;;;;;1.00;1.00;;;18.60;48.70;;;;;;5049593;28;20107;-42
2021/04/17 05:15:43;;;;;;;1.08;1.08;;;18.50;48.70;;;;;;5050297;28;20044;-42
2021/04/17 05:18:09;;;;;;;0.95;0.95;;;18.50;48.80;;;;;;5049782;28;20494;-42
2021/04/17 05:20:35;;;;;;;0.80;0.80;;;18.60;49.00;;;;;;5052080;28;20025;-40
2021/04/17 05:23:00;;;;;;;2.40;1.23;;;18.50;48.80;;;;;;5049491;28;20037;-40
2021/04/17 05:25:26;;;;;;;1.00;1.00;;;18.50;48.80;;;;;;5048970;28;20025;-40
2021/04/17 05:27:51;;;;;;;1.00;1.00;;;18.50;49.00;;;;;;5049529;28;20120;-40
2021/04/17 05:30:17;;;;;;;0.82;0.82;;;18.50;48.80;;;;;;5049016;28;20033;-43
2021/04/17 05:32:43;;;;;;;1.00;1.00;;;18.50;48.80;;;;;;5049436;28;20053;-43
2021/04/17 05:35:09;;;;;;;1.00;1.00;;;18.50;49.00;;;;;;5049511;28;20441;-41
2021/04/17 05:37:35;;;;;;;1.00;0.93;;;18.50;49.00;;;;;;5048475;28;20033;-40
2021/04/17 05:40:00;;;;;;;1.02;1.00;;;18.40;48.90;;;;;;5049154;28;20029;-41
2021/04/17 05:42:26;;;;;;;0.90;0.90;;;18.50;49.00;;;;;;5047745;28;20114;-41
2021/04/17 05:44:51;;;;;;;2.00;1.00;;;18.50;49.00;;;;;;5052236;28;20025;-42
2021/04/17 05:47:17;;;;;;;1.10;1.10;;;18.40;49.00;;;;;;5048206;28;20047;-41
2021/04/17 05:49:42;;;;;;;1.10;1.00;;;18.50;49.00;;;;;;5047320;28;20017;-40
2021/04/17 05:52:08;;;;;;;2.38;1.00;;;18.50;49.00;;;;;;5049077;28;20406;-41
2021/04/17 05:54:34;;;;;;;0.95;0.93;;;18.50;48.90;;;;;;5048920;28;20060;-38
2021/04/17 05:56:59;;;;;;;1.00;1.00;;;18.50;49.50;;;;;;5050398;28;20524;-43
2021/04/17 05:59:25;;;;;;;1.02;1.02;;;18.50;49.00;;;;;;5050789;28;20033;-43
2021/04/17 06:01:50;;;;;;;1.17;1.17;;;18.50;49.00;;;;;;5047865;28;20040;-42
2021/04/17 06:04:16;;;;;;;0.82;0.82;;;18.40;49.00;;;;;;5049416;28;20387;-40
2021/04/17 06:06:41;;;;;;;0.85;0.82;;;18.40;49.10;;;;;;5047356;28;20029;-42
2021/04/17 06:09:07;;;;;;;0.85;0.85;;;18.40;49.00;;;;;;5049592;28;20025;-42
2021/04/17 06:11:33;;;;;;;0.80;0.80;;;18.40;49.10;;;;;;5046654;28;20060;-38
2021/04/17 06:13:58;;;;;;;0.73;0.73;;;18.40;49.00;;;;;;5047900;28;20025;-41
2021/04/17 06:16:24;;;;;;;0.88;0.88;;;18.50;49.00;;;;;;5045437;28;20479;-40
2021/04/17 06:18:49;;;;;;;0.80;0.80;;;18.40;48.90;;;;;;5047118;28;20035;-41
2021/04/17 06:21:15;;;;;;;0.82;0.80;;;18.40;49.00;;;;;;5048718;28;20036;-40
2021/04/17 06:23:40;;;;;;;1.20;1.10;;;18.40;49.10;;;;;;5050634;28;20502;-41
2021/04/17 06:26:06;;;;;;;0.80;0.80;;;18.40;49.70;;;;;;5046485;28;20056;-40
2021/04/17 06:28:32;;;;;;;0.80;0.80;;;18.50;49.10;;;;;;5049214;28;20040;-41
2021/04/17 06:30:58;;;;;;;0.90;0.90;;;18.50;49.00;;;;;;5048857;28;20029;-41
2021/04/17 06:33:23;;;;;;;0.95;0.95;;;18.50;49.00;;;;;;5048311;28;20156;-41
2021/04/17 06:35:49;;;;;;;0.70;0.70;;;18.40;48.80;;;;;;5048299;28;20111;-41
2021/04/17 06:38:15;;;;;;;1.15;0.80;;;18.50;49.00;;;;;;5048332;28;20041;-40
2021/04/17 06:40:41;;;;;;;0.70;0.70;;;18.50;49.00;;;;;;5045778;28;20021;-41
2021/04/17 06:43:07;;;;;;;0.70;0.70;;;18.40;49.00;;;;;;5047968;28;20044;-41
2021/04/17 06:45:38;;;;;;;0.75;0.75;;;18.30;49.10;;;;;;5047877;28;20066;-40
2021/04/17 06:48:11;;;;;;;0.80;0.80;;;18.30;49.30;;;;;;5043658;28;20033;-43
2021/04/17 06:50:37;;;;;;;1.00;1.00;;;18.40;49.40;;;;;;5043498;28;20025;-42
2021/04/17 06:53:04;;;;;;;0.80;0.80;;;18.40;49.10;;;;;;5047955;28;20452;-41
2021/04/17 06:55:29;;;;;;;1.25;1.15;;;18.30;50.00;;;;;;5047669;28;20022;-42
2021/04/17 06:57:55;;;;;;;1.20;1.10;;;18.10;49.80;;;;;;5045331;28;20537;-43
2021/04/17 07:00:22;;;;;;;1.13;1.10;;;18.10;49.90;;;;;;5044442;28;20021;-42
2021/04/17 07:02:47;;;;;;;0.68;0.68;;;18.00;50.20;;;;;;5045639;28;20047;-42
2021/04/17 07:05:13;;;;;;;0.80;0.80;;;18.00;50.50;;;;;;5044454;28;20025;-40
2021/04/17 07:07:39;;;;;;;1.10;1.00;;;18.00;50.60;;;;;;5046049;28;20025;-42
2021/04/17 07:10:05;;;;;;;0.90;0.90;;;18.00;50.70;;;;;;5045489;28;20040;-35
2021/04/17 07:12:30;;;;;;;0.85;0.80;;;18.00;50.50;;;;;;5045222;28;20030;-40
2021/04/17 07:14:56;;;;;;;1.42;1.00;;;18.00;50.70;;;;;;5048983;28;20035;-41
2021/04/17 07:17:22;;;;;;;1.15;1.10;;;18.00;50.70;;;;;;5048685;28;20068;-43
2021/04/17 07:19:54;;;;;;;1.17;1.17;;;18.10;50.60;;;;;;5048636;28;20107;-41
2021/04/17 07:22:23;;;;;;;0.90;0.90;;;18.30;50.10;;;;;;5048259;28;20037;-42
2021/04/17 07:25:10;;;;;;;1.05;0.95;;;18.40;49.80;;;;;;5047661;28;20487;-41
2021/04/17 07:27:52;;;;;;;1.70;1.10;;;18.60;49.40;;;;;;5039792;28;20510;-45
2021/04/17 07:30:17;;;;;;;0.82;0.70;;;18.80;49.10;;;;;;5048989;28;20029;-42
2021/04/17 07:32:47;;;;;;;1.05;1.05;;;18.90;48.60;;;;;;5050381;28;20123;-42
2021/04/17 07:35:17;;;;;;;2.15;0.80;;;19.00;48.40;;;;;;5049135;28;20057;-43
2021/04/17 07:37:44;;;;;;;1.75;0.70;;;19.10;48.30;;;;;;5046712;28;20031;-41
2021/04/17 07:40:24;;;;;;;0.95;0.95;;;19.00;48.60;;;;;;5048705;28;20024;-42
2021/04/17 07:42:53;;;;;;;0.90;0.90;;;18.80;48.80;;;;;;5045917;28;20037;-42
2021/04/17 07:45:31;;;;;;;1.50;0.93;;;18.80;49.00;;;;;;5048625;28;20028;-44
2021/04/17 07:48:02;;;;;;;0.90;0.90;;;18.70;49.20;;;;;;5045961;28;20021;-41
2021/04/17 07:50:35;;;;;;;1.10;1.10;;;18.70;49.30;;;;;;5048603;28;20125;-41
2021/04/17 07:53:01;;;;;;;1.05;1.05;;;18.70;49.50;;;;;;5042465;28;20025;-43
2021/04/17 07:55:32;;;;;;;1.00;1.00;;;18.70;49.40;;;;;;5050550;28;20025;-41
2021/04/17 07:57:58;;;;;;;0.80;0.80;;;18.70;49.40;;;;;;5051856;28;20449;-44
2021/04/17 08:00:24;;;;;;;1.00;1.00;;;18.70;49.40;;;;;;5051507;28;20017;-41
2021/04/17 08:02:53;;;;;;;1.23;1.13;;;18.70;49.40;;;;;;5054010;28;20487;-40
2021/04/17 08:05:19;;;;;;;1.30;1.20;;;18.80;49.40;;;;;;5033135;28;20403;-44
2021/04/17 08:07:45;;;;;;;0.90;0.90;;;18.90;49.20;;;;;;5050985;28;20036;-44
2021/04/17 08:10:12;;;;;;;1.10;1.10;;;18.80;49.20;;;;;;5052676;28;20025;-41
2021/04/17 08:12:39;;;;;;;1.27;1.00;;;18.80;49.60;;;;;;5051183;28;20029;-43
2021/04/17 08:15:06;;;;;;;1.30;1.20;;;18.80;49.40;;;;;;5053178;28;20108;-42
2021/04/17 08:17:32;;;;;;;1.67;1.33;;;18.80;50.30;;;;;;5052040;28;20029;-41
2021/04/17 08:19:57;;;;;;;1.25;1.23;;;18.70;50.10;;;;;;5051294;28;20036;-41
2021/04/17 08:22:27;;;;;;;1.67;1.60;;;18.80;50.60;;;;;;5050109;28;20033;-42
2021/04/17 08:24:52;;;;;;;1.50;1.40;;;18.80;50.60;;;;;;5035107;28;20037;-41
2021/04/17 08:27:18;;;;;;;1.80;1.70;;;18.70;53.30;;;;;;5052491;28;20040;-43
2021/04/17 08:29:56;;;;;;;1.85;1.75;;;18.60;52.20;;;;;;5052946;28;20033;-41
2021/04/17 08:32:33;;;;;;;1.70;1.60;;;18.50;52.10;;;;;;5051549;28;20041;-44
2021/04/17 08:35:05;;;;;;;1.53;1.43;;;18.50;52.30;;;;;;4688497;28;9999749;-43
2021/04/17 08:37:32;;;;;;;1.60;1.50;;;18.50;52.60;;;;;;5040198;28;20028;-41
2021/04/17 08:39:58;;;;;;;1.40;1.30;;;18.50;52.20;;;;;;5047139;28;20032;-48
2021/04/17 08:42:45;;;;;;;1.40;1.30;;;18.50;51.90;;;;;;5048028;28;20630;-41
2021/04/17 08:45:13;;;;;;;2.45;1.40;;;18.50;52.20;;;;;;5045767;28;20021;-42
2021/04/17 08:47:45;;;;;;;1.70;1.60;;;18.50;52.10;;;;;;5048358;28;20025;-42
2021/04/17 08:50:33;;;;;;;1.70;1.60;;;18.60;51.80;;;;;;5047823;28;20507;-44
2021/04/17 08:53:01;;;;;;;1.80;1.70;;;18.60;51.50;;;;;;5047843;28;20056;-42
2021/04/17 08:55:29;;;;;;;1.70;1.60;;;18.70;51.50;;;;;;5049171;28;20051;-39
2021/04/17 08:58:12;;;;;;;1.80;1.70;;;18.80;51.50;;;;;;5051273;28;20036;-42
2021/04/17 09:00:39;;;;;;;2.17;1.40;;;18.90;51.40;;;;;;5038257;28;20017;-41
2021/04/17 09:03:04;;;;;;;2.63;1.40;;;18.90;51.40;;;;;;5051612;28;20045;-42
2021/04/17 09:05:46;;;;;;;1.33;1.30;;;18.90;51.90;;;;;;5047751;28;20154;-42
2021/04/17 09:08:14;;;;;;;1.70;1.60;;;18.90;51.10;;;;;;5050950;28;20403;-41
2021/04/17 09:10:41;;;;;;;2.97;1.70;;;19.00;50.80;;;;;;5050826;28;20025;-41
2021/04/17 09:13:20;;;;;;;2.50;1.90;;;19.00;50.70;;;;;;5050770;28;20025;-42
2021/04/17 09:15:53;;;;;;;6.28;2.50;;;19.20;53.00;;;;;;5036869;28;20025;-42
2021/04/17 09:18:34;;;;;;;2.63;2.42;;;19.20;50.30;;;;;;5041110;28;20037;-37
2021/04/17 09:21:08;;;;;;;2.65;2.45;;;19.30;50.10;;;;;;5041132;28;20075;-40
2021/04/17 09:23:42;;;;;;;2.10;1.90;;;19.40;49.70;;;;;;5040810;28;20049;-44
2021/04/17 09:26:08;;;;;;;2.40;1.60;;;19.50;50.10;;;;;;5039632;28;20041;-42
2021/04/17 09:28:37;;;;;;;1.80;1.70;;;19.60;50.10;;;;;;5039930;28;20040;-42
2021/04/17 09:31:03;;;;;;;1.55;1.20;;;19.70;49.20;;;;;;5040575;28;20068;-42
2021/04/17 09:33:29;;;;;;;1.80;1.58;;;19.70;49.60;;;;;;5040179;28;20056;-42
2021/04/17 09:35:55;;;;;;;1.92;1.83;;;19.80;48.70;;;;;;5039201;28;20021;-42
2021/04/17 09:38:22;;;;;;;3.97;2.13;;;19.70;49.50;;;;;;5040397;28;20037;-41
2021/04/17 09:40:52;;;;;;;1.95;1.80;;;19.80;49.30;;;;;;5039734;28;20104;-41
2021/04/17 09:43:25;;;;;;;2.00;1.90;;;19.80;49.20;;;;;;5038853;28;20041;-42
2021/04/17 09:45:51;;;;;;;2.05;1.95;;;19.90;48.60;;;;;;5037904;28;20048;-43
2021/04/17 09:48:18;;;;;;;1.77;1.67;;;19.80;48.50;;;;;;5040861;28;20090;-41
2021/04/17 09:50:44;;;;;;;5.57;1.83;;;19.90;48.60;;;;;;5041835;28;21456;-42
2021/04/17 09:53:28;;;;;;;9.80;1.85;;;19.90;48.60;;;;;;5040687;28;20064;-46
2021/04/17 09:56:02;;;;;;;1.75;1.65;;;19.90;48.60;;;;;;5038314;28;20035;-44
2021/04/17 09:58:35;;;;;;;2.42;1.80;;;19.90;48.40;;;;;;5039765;28;20067;-39
2021/04/17 10:01:16;;;;;;;2.03;1.70;;;19.90;48.30;;;;;;5040373;28;20039;-45
2021/04/17 10:03:43;;;;;;;1.80;1.70;;;19.80;48.60;;;;;;5041038;28;20661;-37
2021/04/17 10:06:34;;;;;;;1.98;1.88;;;19.80;49.20;;;;;;5038226;28;20043;-43
2021/04/17 10:09:06;;;;;;;1.80;1.70;;;19.80;47.70;;;;;;5040961;28;20564;-41
2021/04/17 10:11:32;;;;;;;1.80;1.70;;;19.70;48.40;;;;;;5040587;28;20039;-40
2021/04/17 10:13:57;;;;;;;2.03;1.92;;;19.80;48.30;;;;;;5039873;28;20048;-36
2021/04/17 10:16:28;;;;;;;2.38;2.10;;;19.80;47.00;;;;;;5038326;28;20140;-41
2021/04/17 10:18:53;;;;;;;1.77;1.67;;;19.80;48.10;;;;;;5038268;28;20032;-39
2021/04/17 10:21:24;;;;;;;2.38;1.58;;;19.80;48.40;;;;;;5035656;28;20040;-39
2021/04/17 10:24:28;;;;;;;2.25;2.08;;;19.80;48.30;;;;;;5031798;28;20045;-41
2021/04/17 10:27:13;;;;;;;3.40;2.37;;;19.80;47.90;;;;;;4966861;28;20049;-40
2021/04/17 10:29:52;;;;;;;1.88;1.77;;;19.80;47.60;;;;;;4968686;28;20038;-41
2021/04/17 10:32:19;;;;;;;1.85;1.75;;;19.80;47.50;;;;;;4968400;28;20200;-42
2021/04/17 10:34:46;;;;;;;2.05;1.95;;;19.90;47.80;;;;;;4969042;28;20077;-40
2021/04/17 10:37:20;;;;;;;2.35;2.15;;;19.90;47.70;;;;;;4968982;28;20544;-40
2021/04/17 10:40:02;;;;;;;2.25;2.10;;;20.00;47.60;;;;;;4967935;28;20030;-41
2021/04/17 10:42:46;;;;;;;1.58;1.45;;;20.00;47.70;;;;;;4968592;28;20050;-41
2021/04/17 10:45:15;;;;;;;1.95;1.42;;;20.00;47.90;;;;;;4966744;28;20038;-40
2021/04/17 10:47:41;;;;;;;1.95;1.40;;;20.10;47.70;;;;;;4970287;28;20104;-41
2021/04/17 10:50:20;;;;;;;1.50;1.33;;;20.10;47.60;;;;;;4952173;28;20916;-39
2021/04/17 10:53:14;;;;;;;1.45;1.30;;;20.20;47.30;;;;;;4969526;28;20053;-40
2021/04/17 10:55:45;;;;;;;2.23;1.67;;;20.10;47.40;;;;;;4612499;28;10000494;-41
2021/04/17 10:58:20;;;;;;;3.17;1.90;;;20.10;47.60;;;;;;4949690;28;20642;-32
2021/04/17 11:00:55;;;;;;;1.30;1.27;;;20.10;47.50;;;;;;4966532;28;20841;-40
2021/04/17 11:03:21;;;;;;;2.55;1.40;;;20.10;47.70;;;;;;4988769;28;20438;-41
2021/04/17 11:05:47;;;;;;;2.25;1.25;;;20.10;47.60;;;;;;5029715;28;20053;-37
2021/04/17 11:08:22;;;;;;;1.08;1.02;;;20.00;48.70;;;;;;5029529;28;20125;-40
2021/04/17 11:10:47;;;;;;;2.65;1.38;;;20.00;48.20;;;;;;5028956;28;20032;-32
2021/04/17 11:13:27;;;;;;;1.20;1.20;;;19.90;48.50;;;;;;5031025;28;20033;-34
2021/04/17 11:15:53;;;;;;;1.30;1.20;;;19.90;48.80;;;;;;5027616;28;20116;-40
2021/04/17 11:18:19;;;;;;;2.95;1.13;;;20.00;48.80;;;;;;5030086;28;20059;-41
2021/04/17 11:20:46;;;;;;;2.00;1.17;;;20.00;48.80;;;;;;5030080;28;20025;-44
2021/04/17 11:23:43;;;;;;;1.10;1.10;;;20.10;48.50;;;;;;5030766;28;20103;-41
2021/04/17 11:26:19;;;;;;;1.00;0.90;;;20.00;49.00;;;;;;5036080;28;20075;-44
2021/04/17 11:28:53;;;;;;;1.10;1.00;;;20.20;48.80;;;;;;5039518;28;20040;-42
2021/04/17 11:31:21;;;;;;;0.90;0.90;;;20.10;48.90;;;;;;5043254;28;20033;-40
2021/04/17 11:33:47;;;;;;;2.45;0.90;;;20.10;49.20;;;;;;5042585;28;20079;-41
2021/04/17 11:36:12;;;;;;;2.60;1.08;;;20.20;48.90;;;;;;5032682;28;20033;-37
2021/04/17 11:38:38;;;;;;;1.92;1.20;;;20.20;50.00;;;;;;5034459;28;20053;-42
2021/04/17 11:41:04;;;;;;;1.30;1.20;;;20.20;49.30;;;;;;5032573;28;20388;-41
2021/04/17 11:43:29;;;;;;;1.17;1.05;;;20.10;49.40;;;;;;5032782;28;20040;-42
2021/04/17 11:45:55;;;;;;;1.10;0.90;;;20.20;48.90;;;;;;5032333;28;20036;-40
2021/04/17 11:48:21;;;;;;;1.10;1.00;;;20.10;49.80;;;;;;5032748;28;20029;-41
2021/04/17 11:50:46;;;;;;;2.20;1.00;;;20.10;50.40;;;;;;5033137;28;20581;-42
2021/04/17 11:53:12;;;;;;;1.17;1.02;;;20.20;49.70;;;;;;5033891;28;20055;-42
2021/04/17 11:55:38;;;;;;;1.67;0.98;;;20.20;50.20;;;;;;5031313;28;20032;-51
2021/04/17 11:58:04;;;;;;;3.92;1.00;;;20.20;50.10;;;;;;5034561;28;20047;-33
2021/04/17 12:00:29;;;;;;;1.20;1.10;;;20.20;49.90;;;;;;5032292;28;20037;-45
2021/04/17 12:02:55;;;;;;;2.97;1.08;;;20.30;49.60;;;;;;5033536;28;20624;-38
2021/04/17 12:05:21;;;;;;;1.10;1.00;;;20.40;49.60;;;;;;5031658;28;20039;-43
2021/04/17 12:07:46;;;;;;;1.65;1.00;;;20.40;49.50;;;;;;5033405;28;20159;-35
2021/04/17 12:10:12;;;;;;;0.70;0.70;;;20.50;50.00;;;;;;5032723;28;20029;-39
2021/04/17 12:12:38;;;;;;;0.90;0.80;;;20.50;49.40;;;;;;5033268;28;20890;-37
2021/04/17 12:15:05;;;;;;;0.93;0.93;;;20.40;49.20;;;;;;5028362;28;20025;-40
2021/04/17 12:17:30;;;;;;;0.90;0.90;;;20.40;49.70;;;;;;5031566;28;20706;-39
2021/04/17 12:19:58;;;;;;;2.63;1.02;;;20.50;49.40;;;;;;5032400;28;20018;-40
2021/04/17 12:22:24;;;;;;;1.23;1.13;;;20.60;49.70;;;;;;5033494;28;20041;-40
2021/04/17 12:24:49;;;;;;;2.53;1.10;;;20.70;49.20;;;;;;5032677;28;20530;-40
2021/04/17 12:27:15;;;;;;;0.80;0.80;;;20.60;49.50;;;;;;5032060;28;20037;-38
2021/04/17 12:29:41;;;;;;;0.70;0.70;;;20.60;49.50;;;;;;5032896;28;20033;-39
2021/04/17 12:32:06;;;;;;;2.33;1.02;;;20.50;50.00;;;;;;5033152;28;20124;-41
2021/04/17 12:34:32;;;;;;;1.42;1.15;;;20.50;50.00;;;;;;5032130;28;20577;-41
2021/04/17 12:36:57;;;;;;;1.60;1.00;;;20.40;49.80;;;;;;5029579;28;20533;-42
2021/04/17 12:39:23;;;;;;;0.93;0.93;;;20.40;49.90;;;;;;5032190;28;20043;-40
2021/04/17 12:41:49;;;;;;;2.03;1.08;;;20.50;50.10;;;;;;5033068;28;20083;-41
2021/04/17 12:44:14;;;;;;;0.95;0.95;;;20.50;50.20;;;;;;5032892;28;20036;-39
2021/04/17 12:46:40;;;;;;;2.25;1.00;;;20.60;50.40;;;;;;5030062;28;20787;-42
2021/04/17 12:49:06;;;;;;;1.10;1.00;;;20.40;50.20;;;;;;5031637;28;20041;-40
2021/04/17 12:51:32;;;;;;;3.45;0.95;;;20.50;50.70;;;;;;5036973;28;20116;-42